createdAt,value
2019-05-06T00:02:08.953Z,5.70
2019-05-06T00:04:39.056Z,5.60
2019-05-06T00:07:08.772Z,5.50
2019-05-06T00:09:38.475Z,5.60
2019-05-06T00:12:08.679Z,5.60
2019-05-06T00:14:38.661Z,5.70
2019-05-06T00:17:11.774Z,5.70
2019-05-06T00:19:41.424Z,5.70
2019-05-06T00:22:14.181Z,5.60
2019-05-06T00:24:54.732Z,5.70
2019-05-06T00:27:40.533Z,5.70
2019-05-06T00:30:10.817Z,5.60
2019-05-06T00:32:44.240Z,5.50
2019-05-06T00:35:14.258Z,5.50
2019-05-06T00:37:44.559Z,5.40
2019-05-06T00:40:36.715Z,5.50
2019-05-06T00:43:10.405Z,5.60
2019-05-06T00:45:40.240Z,5.60
2019-05-06T00:48:10.933Z,5.70
2019-05-06T00:50:40.904Z,5.80
2019-05-06T00:53:14.149Z,5.80
2019-05-06T00:55:44.640Z,5.80
2019-05-06T00:58:14.968Z,5.80
2019-05-06T01:00:45.226Z,5.80
2019-05-06T01:03:16.149Z,5.70
2019-05-06T01:05:46.401Z,5.70
2019-05-06T01:08:15.849Z,5.80
2019-05-06T01:10:46.238Z,5.80
2019-05-06T01:13:37.134Z,5.80
2019-05-06T01:16:09.677Z,5.70
2019-05-06T01:18:40.360Z,5.80
2019-05-06T01:21:11.487Z,5.80
2019-05-06T01:23:43.947Z,5.80
2019-05-06T01:26:15.752Z,5.70
2019-05-06T01:28:46.666Z,5.70
2019-05-06T01:31:16.785Z,5.80
2019-05-06T01:33:46.618Z,5.80
2019-05-06T01:36:16.946Z,5.80
2019-05-06T01:39:06.091Z,5.80
2019-05-06T01:41:54.987Z,5.70
2019-05-06T01:44:33.898Z,5.70
2019-05-06T01:47:04.022Z,5.70
2019-05-06T01:49:34.207Z,5.70
2019-05-06T01:52:04.841Z,5.80
2019-05-06T01:54:37.840Z,5.80
2019-05-06T02:00:27.462Z,5.90
2019-05-06T02:03:09.821Z,5.80
2019-05-06T02:28:18.191Z,5.80
2019-05-06T02:30:59.560Z,5.90
2019-05-06T02:34:00.646Z,5.80
2019-05-06T02:36:49.445Z,5.80
2019-05-06T02:39:23.363Z,5.90
2019-05-06T02:41:54.601Z,5.90
2019-05-06T02:44:25.780Z,5.90
2019-05-06T02:52:25.035Z,5.80
2019-05-06T02:54:54.685Z,5.80
2019-05-06T02:57:24.538Z,5.80
2019-05-06T02:59:55.315Z,5.80
2019-05-06T03:02:38.920Z,5.80
2019-05-06T03:04:57.134Z,5.80
2019-05-06T03:07:27.092Z,5.80
2019-05-06T03:09:56.766Z,5.70
2019-05-06T03:12:27.155Z,5.70
2019-05-06T03:14:57.388Z,5.70
2019-05-06T03:17:27.102Z,5.70
2019-05-06T03:19:58.563Z,5.80
2019-05-06T03:22:54.420Z,5.80
2019-05-06T03:25:32.911Z,5.80
2019-05-06T03:28:05.248Z,5.80
2019-05-06T03:30:36.204Z,5.80
2019-05-06T03:36:31.145Z,5.80
2019-05-06T03:38:55.207Z,5.80
2019-05-06T03:41:26.732Z,5.80
2019-05-06T03:43:56.719Z,5.70
2019-05-06T03:46:57.495Z,5.70
2019-05-06T03:49:29.992Z,5.70
2019-05-06T03:52:02.760Z,5.70
2019-05-06T03:54:34.773Z,5.70
2019-05-06T03:57:06.032Z,5.70
2019-05-06T03:59:38.873Z,5.60
2019-05-06T04:02:13.209Z,5.70
2019-05-06T04:04:46.171Z,5.70
2019-05-06T04:07:17.937Z,5.70
2019-05-06T04:09:58.773Z,5.70
2019-05-06T04:12:33.104Z,5.80
2019-05-06T04:15:04.328Z,5.70
2019-05-06T04:17:54.350Z,5.80
2019-05-06T04:20:43.893Z,5.70
2019-05-06T04:23:33.302Z,5.80
2019-05-06T04:26:32.920Z,5.80
2019-05-06T04:29:05.304Z,5.60
2019-05-06T04:31:35.492Z,5.70
2019-05-06T04:34:14.515Z,5.60
2019-05-06T04:36:39.805Z,5.50
2019-05-06T04:39:12.843Z,5.70
2019-05-06T04:41:43.414Z,5.70
2019-05-06T04:44:14.134Z,5.70
2019-05-06T04:46:44.574Z,5.70
2019-05-06T04:49:18.829Z,5.70
2019-05-06T04:51:54.339Z,5.70
2019-05-06T04:54:26.640Z,5.80
2019-05-06T04:56:57.904Z,5.80
2019-05-06T04:59:28.040Z,5.90
2019-05-06T05:01:58.278Z,6.00
2019-05-06T05:04:32.600Z,5.90
2019-05-06T05:06:59.800Z,6.00
2019-05-06T05:09:32.521Z,6.00
2019-05-06T05:12:06.590Z,6.00
2019-05-06T05:14:52.072Z,6.00
2019-05-06T05:17:30.000Z,6.00
2019-05-06T05:20:02.063Z,6.00
2019-05-06T05:22:32.636Z,6.10
2019-05-06T05:25:03.705Z,6.20
2019-05-06T05:27:33.943Z,6.10
2019-05-06T05:30:04.168Z,6.20
2019-05-06T05:32:37.673Z,6.20
2019-05-06T05:35:08.142Z,6.20
2019-05-06T05:37:38.378Z,6.30
2019-05-06T05:40:08.527Z,6.30
2019-05-06T05:43:23.464Z,6.30
2019-05-06T12:30:27.219Z,9.80
2019-05-06T12:33:33.102Z,9.30
2019-05-06T12:36:15.120Z,9.20
2019-05-06T12:39:06.659Z,9.20
2019-05-06T12:41:42.889Z,9.00
2019-05-06T12:44:13.066Z,8.90
2019-05-06T12:46:59.750Z,9.10
2019-05-06T12:49:29.150Z,9.10
2019-05-06T12:51:59.226Z,9.00
2019-05-06T12:54:29.978Z,9.00
2019-05-06T12:57:00.045Z,9.00
2019-05-06T12:59:30.231Z,9.00
2019-05-06T13:02:02.669Z,9.20
2019-05-06T13:04:50.332Z,9.40
2019-05-06T13:07:03.196Z,9.50
2019-05-06T13:09:33.364Z,9.60
2019-05-06T13:12:03.804Z,9.60
2019-05-06T13:14:34.000Z,9.60
2019-05-06T13:17:03.874Z,9.50
2019-05-06T13:19:33.231Z,9.50
2019-05-06T13:22:03.887Z,9.60
2019-05-06T13:24:33.944Z,9.70
2019-05-06T13:27:03.686Z,9.80
2019-05-06T13:29:35.620Z,9.80
2019-05-06T13:32:07.591Z,10.00
2019-05-06T13:34:38.052Z,9.90
2019-05-06T13:37:08.512Z,10.10
2019-05-06T13:39:44.549Z,10.30
2019-05-06T13:42:14.620Z,10.50
2019-05-06T13:44:43.859Z,10.50
2019-05-06T13:47:16.337Z,10.30
2019-05-06T13:49:52.712Z,10.50
2019-05-06T13:52:27.065Z,10.50
2019-05-06T13:54:57.331Z,10.70
2019-05-06T13:57:29.051Z,10.90
2019-05-06T13:59:57.817Z,11.00
2019-05-06T14:02:52.850Z,11.10
2019-05-06T14:05:23.859Z,11.20
2019-05-06T14:07:53.529Z,11.00
2019-05-06T14:10:23.271Z,11.10
2019-05-06T14:12:53.425Z,11.20
2019-05-06T14:15:23.621Z,11.20
2019-05-06T14:17:53.438Z,11.00
2019-05-06T14:20:23.102Z,11.00
2019-05-06T14:22:52.950Z,10.80
2019-05-06T14:25:43.207Z,10.70
2019-05-06T14:28:38.217Z,10.70
2019-05-06T14:31:13.248Z,10.80
2019-05-06T14:33:42.892Z,10.70
2019-05-06T14:36:12.803Z,10.80
2019-05-06T14:38:43.097Z,10.70
2019-05-06T14:41:18.704Z,10.70
2019-05-06T14:43:49.301Z,10.80
2019-05-06T14:46:18.700Z,10.80
2019-05-06T14:48:48.251Z,10.80
2019-05-06T14:51:17.909Z,10.90
2019-05-06T14:53:47.827Z,10.90
2019-05-06T14:56:37.045Z,10.80
2019-05-06T14:59:12.594Z,10.70
2019-05-06T15:01:45.416Z,10.50
2019-05-06T15:04:13.328Z,10.40
2019-05-06T15:06:43.017Z,10.20
2019-05-06T15:09:13.319Z,10.40
2019-05-06T15:11:43.566Z,10.40
2019-05-06T15:14:13.250Z,10.30
2019-05-06T15:16:42.584Z,10.20
2019-05-06T15:19:12.911Z,10.20
2019-05-06T15:21:43.083Z,10.10
2019-05-06T15:24:14.285Z,10.20
2019-05-06T15:26:44.526Z,10.10
2019-05-06T15:29:14.358Z,10.00
2019-05-06T15:31:53.627Z,10.00
2019-05-06T15:34:29.262Z,9.90
2019-05-06T15:37:04.969Z,9.90
2019-05-06T15:39:34.349Z,9.60
2019-05-06T15:42:04.287Z,9.60
2019-05-06T15:44:35.463Z,9.70
2019-05-06T15:47:06.053Z,9.70
2019-05-06T15:49:36.008Z,9.80
2019-05-06T15:52:05.354Z,9.90
2019-05-06T15:54:36.025Z,10.10
2019-05-06T15:57:05.499Z,10.10
2019-05-06T15:59:35.438Z,10.10
2019-05-06T16:02:05.021Z,10.20
2019-05-06T16:04:34.614Z,10.10
2019-05-06T16:07:04.715Z,10.20
2019-05-06T16:09:34.601Z,10.20
2019-05-06T16:12:04.511Z,10.10
2019-05-06T16:14:35.018Z,10.00
2019-05-06T16:17:04.662Z,10.10
2019-05-06T16:19:34.532Z,10.00
2019-05-06T16:22:04.339Z,10.00
2019-05-06T16:24:47.795Z,10.10
2019-05-06T16:27:17.941Z,10.20
2019-05-06T16:29:47.959Z,10.20
2019-05-06T16:32:17.742Z,10.40
2019-05-06T16:34:47.263Z,10.40
2019-05-06T16:37:16.917Z,10.40
2019-05-06T16:39:46.482Z,10.50
2019-05-06T16:42:15.525Z,10.40
2019-05-06T16:44:45.473Z,10.30
2019-05-06T16:47:33.727Z,10.20
2019-05-06T16:50:03.433Z,10.10
2019-05-06T16:52:33.360Z,10.20
2019-05-06T16:55:03.219Z,10.10
2019-05-06T16:57:33.742Z,10.00
2019-05-06T17:00:03.689Z,10.00
2019-05-06T17:02:57.660Z,9.90
2019-05-06T17:06:00.683Z,9.90
2019-05-06T17:08:35.471Z,9.90
2019-05-06T17:11:04.444Z,9.90
2019-05-06T17:13:34.031Z,9.80
2019-05-06T17:16:46.010Z,9.80
2019-05-06T17:22:46.830Z,9.60
2019-05-06T17:25:24.014Z,9.60
2019-05-06T17:28:23.818Z,9.70
2019-05-06T17:31:19.451Z,9.60
2019-05-06T17:33:52.329Z,9.50
2019-05-06T17:36:36.844Z,9.50
2019-05-06T17:39:10.260Z,9.40
2019-05-06T17:41:48.327Z,9.30
2019-05-06T17:44:32.192Z,9.20
2019-05-06T17:48:02.902Z,9.20
2019-05-06T17:53:01.955Z,9.20
2019-05-06T17:55:52.656Z,9.20
2019-05-06T17:58:25.153Z,9.10
2019-05-06T18:00:55.150Z,9.10
2019-05-06T18:03:25.333Z,9.20
2019-05-06T18:05:54.681Z,9.10
2019-05-06T18:08:24.062Z,9.10
2019-05-06T18:10:53.787Z,9.00
2019-05-06T18:13:23.203Z,9.00
2019-05-06T18:15:53.162Z,9.00
2019-05-06T18:18:28.440Z,8.90
2019-05-06T18:20:54.705Z,9.00
2019-05-06T18:23:24.526Z,8.90
2019-05-06T18:25:54.232Z,8.80
2019-05-06T18:28:24.305Z,8.80
2019-05-06T18:30:54.303Z,8.80
2019-05-06T18:33:24.543Z,8.70
2019-05-06T18:35:54.573Z,8.70
2019-05-06T18:38:23.809Z,8.70
2019-05-06T18:40:53.150Z,8.60
2019-05-06T18:43:22.943Z,8.70
2019-05-06T18:45:52.905Z,8.70
2019-05-06T18:48:22.905Z,8.60
2019-05-06T18:50:52.348Z,8.60
2019-05-06T18:53:22.598Z,8.50
2019-05-06T18:55:52.119Z,8.50
2019-05-06T18:58:22.436Z,8.50
2019-05-06T19:00:53.064Z,8.50
2019-05-06T19:03:23.108Z,8.50
2019-05-06T19:05:53.015Z,8.50
2019-05-06T19:08:33.083Z,8.50
2019-05-06T19:11:02.943Z,8.40
2019-05-06T19:13:33.495Z,8.30
2019-05-06T19:16:02.870Z,8.40
2019-05-06T19:18:33.495Z,8.40
2019-05-06T19:21:03.088Z,8.30
2019-05-06T19:23:33.423Z,8.30
2019-05-06T19:26:02.995Z,8.20
2019-05-06T19:28:32.986Z,8.30
2019-05-06T19:31:03.123Z,8.30
2019-05-06T19:33:34.884Z,8.20
2019-05-06T19:36:06.382Z,8.30
2019-05-06T19:38:36.385Z,8.20
2019-05-06T19:41:06.069Z,8.10
2019-05-06T19:43:35.880Z,8.00
2019-05-06T19:46:05.663Z,8.00
2019-05-06T19:48:35.849Z,8.00
2019-05-06T19:51:05.514Z,7.90
2019-05-06T19:53:35.366Z,7.90
2019-05-06T19:56:04.732Z,7.90
2019-05-06T19:58:34.514Z,7.90
2019-05-06T20:01:04.925Z,7.90
2019-05-06T20:03:35.193Z,7.90
2019-05-06T20:06:24.251Z,7.80
2019-05-06T20:09:02.281Z,7.80
2019-05-06T20:11:38.803Z,7.70
2019-05-06T20:14:08.347Z,7.80
2019-05-06T20:16:38.019Z,7.70
2019-05-06T20:19:07.691Z,7.60
2019-05-06T20:21:37.030Z,7.80
2019-05-06T20:24:06.255Z,8.00
2019-05-06T20:26:35.629Z,8.10
2019-05-06T20:29:05.010Z,8.10
2019-05-06T20:31:34.635Z,8.10
2019-05-06T20:34:06.758Z,8.20
2019-05-06T20:36:36.750Z,8.10
2019-05-06T20:39:08.185Z,8.00
2019-05-06T20:41:37.999Z,8.10
2019-05-06T20:44:07.187Z,8.10
2019-05-06T20:46:36.633Z,8.00
2019-05-06T20:49:05.804Z,8.00
2019-05-06T20:51:35.170Z,7.80
2019-05-06T20:54:04.660Z,7.90
2019-05-06T20:56:34.702Z,7.80
2019-05-06T20:59:03.998Z,7.90
2019-05-06T21:01:33.614Z,7.70
2019-05-06T21:04:02.809Z,7.70
2019-05-06T21:06:32.418Z,7.70
2019-05-06T21:09:02.555Z,7.80
2019-05-06T21:11:34.925Z,7.80
2019-05-06T21:14:07.378Z,7.80
2019-05-06T21:16:39.630Z,7.70
2019-05-06T21:19:14.337Z,7.70
2019-05-06T21:21:44.819Z,7.70
2019-05-06T21:26:53.365Z,7.70
2019-05-06T21:29:28.009Z,7.70
2019-05-06T21:31:58.803Z,7.70
2019-05-06T21:34:28.501Z,7.60
2019-05-06T21:37:02.640Z,7.40
2019-05-06T21:39:32.766Z,7.40
2019-05-06T21:42:03.594Z,7.40
2019-05-06T21:44:33.996Z,7.50
2019-05-06T21:47:03.779Z,7.50
2019-05-06T21:49:34.429Z,7.50
2019-05-06T21:52:04.686Z,7.50
2019-05-06T21:54:36.646Z,7.50
2019-05-06T21:57:08.022Z,7.50
2019-05-06T21:59:38.672Z,7.50
2019-05-06T22:02:12.006Z,7.50
2019-05-06T22:04:43.350Z,7.40
2019-05-06T22:07:14.540Z,7.40
2019-05-06T22:09:44.627Z,7.30
2019-05-06T22:12:15.995Z,7.30
2019-05-06T22:14:45.837Z,7.40
2019-05-06T22:17:15.980Z,7.40
2019-05-06T22:19:46.119Z,7.40
2019-05-06T22:22:20.402Z,7.40
2019-05-06T22:24:55.509Z,7.40
2019-05-06T22:27:22.485Z,7.40
2019-05-06T22:29:56.890Z,7.40
2019-05-06T22:32:26.547Z,7.50
2019-05-06T22:34:59.040Z,7.40
2019-05-06T22:37:29.332Z,7.30
2019-05-06T22:39:59.033Z,7.40
2019-05-06T22:42:36.655Z,7.40
2019-05-06T22:45:07.192Z,7.30
2019-05-06T22:47:37.839Z,7.30
2019-05-06T22:50:08.243Z,7.30
2019-05-06T22:52:38.897Z,7.30
2019-05-06T22:55:08.870Z,7.30
2019-05-06T22:57:42.203Z,7.30
2019-05-06T23:00:22.285Z,7.30
2019-05-06T23:02:56.797Z,7.30
2019-05-06T23:05:27.260Z,7.20
2019-05-06T23:07:57.395Z,7.20
2019-05-06T23:10:35.671Z,7.20
2019-05-06T23:13:07.223Z,7.10
2019-05-06T23:15:36.511Z,7.20
2019-05-06T23:18:06.076Z,7.10
2019-05-06T23:20:35.933Z,7.20
2019-05-06T23:23:06.103Z,7.10
2019-05-06T23:25:36.162Z,7.10
2019-05-06T23:28:06.075Z,7.20
2019-05-06T23:30:35.845Z,7.10
2019-05-06T23:33:05.684Z,7.00
2019-05-06T23:35:36.350Z,7.00
2019-05-06T23:38:43.070Z,7.10
2019-05-06T23:41:49.093Z,7.10
2019-05-06T23:44:55.158Z,7.10
2019-05-06T23:48:02.630Z,7.00
2019-05-06T23:51:08.884Z,7.00
2019-05-06T23:54:15.019Z,7.00
2019-05-06T23:56:44.579Z,7.00
2019-05-06T23:59:16.955Z,6.90
